Time;durP1;ratioP1;P1;durP2;ratioP2;P2;SDS_P1;SDS_P2;PMS_P1;PMS_P2;Temp;Humidity;BMP_temperature;BMP_pressure;BME280_temperature;BME280_humidity;BME280_pressure;Samples;Min_cycle;Max_cycle;Signal;HPM_P1;HPM_P2
2022/12/22 03:26:29;;;;;;;7.53;2.38;;;;;;;;;;5144123;27;20051;-58
2022/12/22 03:28:55;;;;;;;26.30;4.43;;;;;;;;;;5139676;27;20512;-58
2022/12/22 03:31:21;;;;;;;16.80;3.85;;;;;;;;;;5146203;27;20046;-58
2022/12/22 03:33:47;;;;;;;13.23;3.30;;;;;;;;;;5143084;27;20043;-58
2022/12/22 03:36:13;;;;;;;20.33;6.88;;;;;;;;;;5141008;27;20172;-58
2022/12/22 03:38:39;;;;;;;13.32;2.97;;;;;;;;;;5144162;27;20129;-59
2022/12/22 03:41:05;;;;;;;18.50;5.35;;;;;;;;;;5145221;27;20043;-58
2022/12/22 03:46:29;;;;;;;14.27;4.57;;;;;;;;;;5144137;27;20039;-58
2022/12/22 03:49:11;;;;;;;16.45;5.25;;;;;;;;;;5144152;27;20608;-58
2022/12/22 03:51:44;;;;;;;30.57;4.57;;;;;;;;;;5145655;27;20129;-59
2022/12/22 03:54:11;;;;;;;16.00;3.40;;;;;;;;;;5142501;27;20354;-59
2022/12/22 03:56:37;;;;;;;15.40;4.63;;;;;;;;;;5143960;27;20039;-58
2022/12/22 03:59:04;;;;;;;19.55;4.38;;;;;;;;;;5142924;27;20666;-58
2022/12/22 04:01:30;;;;;;;19.48;7.43;;;;;;;;;;5145063;27;21569;-58
2022/12/22 04:03:56;;;;;;;28.85;7.43;;;;;;;;;;5142377;27;20039;-58
2022/12/22 04:06:22;;;;;;;10.90;2.47;;;;;;;;;;5142749;27;20055;-59
2022/12/22 04:08:49;;;;;;;11.65;3.75;;;;;;;;;;5144922;27;20071;-58
2022/12/22 04:14:01;;;;;;;27.98;5.15;;;;;;;;;;5144015;27;20693;-58
2022/12/22 04:16:27;;;;;;;19.20;3.70;;;;;;;;;;5144382;27;20504;-58
2022/12/22 04:18:53;;;;;;;31.92;6.03;;;;;;;;;;5143090;27;20532;-58
2022/12/22 04:21:20;;;;;;;27.38;6.32;;;;;;;;;;5144217;27;20038;-60
2022/12/22 04:23:46;;;;;;;28.15;7.60;;;;;;;;;;5142488;27;20042;-58
2022/12/22 04:26:12;;;;;;;21.63;8.73;;;;;;;;;;5142952;27;20042;-58
2022/12/22 04:28:38;;;;;;;27.00;5.30;;;;;;;;;;5140751;27;20067;-59
2022/12/22 04:31:04;;;;;;;29.00;5.35;;;;;;;;;;5143702;27;20517;-60
2022/12/22 04:33:30;;;;;;;38.22;10.25;;;;;;;;;;5157093;27;20042;-58
2022/12/22 04:35:56;;;;;;;33.85;9.23;;;;;;;;;;5144261;27;20549;-58
2022/12/22 04:38:22;;;;;;;22.70;6.50;;;;;;;;;;5142846;27;20039;-58
2022/12/22 04:40:48;;;;;;;22.48;6.65;;;;;;;;;;5143785;27;20043;-58
2022/12/22 04:43:14;;;;;;;20.55;6.13;;;;;;;;;;5142085;27;20091;-59
2022/12/22 04:45:41;;;;;;;35.03;6.65;;;;;;;;;;5143422;27;20035;-58
2022/12/22 04:48:07;;;;;;;22.30;4.90;;;;;;;;;;5144799;27;20116;-58
2022/12/22 04:50:33;;;;;;;30.80;7.45;;;;;;;;;;5142769;27;20039;-59
2022/12/22 04:52:59;;;;;;;25.65;6.68;;;;;;;;;;5143512;27;20101;-58
2022/12/22 04:55:25;;;;;;;15.80;6.18;;;;;;;;;;5143684;27;20039;-58
2022/12/22 04:57:51;;;;;;;17.88;5.47;;;;;;;;;;5143072;27;20049;-58
2022/12/22 05:00:18;;;;;;;26.38;6.90;;;;;;;;;;5145004;27;20139;-59
2022/12/22 05:02:44;;;;;;;25.38;6.00;;;;;;;;;;5143882;27;20045;-58
2022/12/22 05:05:10;;;;;;;27.20;6.65;;;;;;;;;;5143971;27;20042;-58
2022/12/22 05:07:37;;;;;;;17.85;5.55;;;;;;;;;;5144155;27;20051;-59
2022/12/22 05:10:04;;;;;;;17.92;7.50;;;;;;;;;;5145169;27;20054;-59
2022/12/22 05:15:15;;;;;;;24.95;6.95;;;;;;;;;;5142067;27;20046;-58
2022/12/22 05:17:41;;;;;;;29.73;7.25;;;;;;;;;;5144123;27;20119;-58
2022/12/22 05:20:07;;;;;;;38.15;9.35;;;;;;;;;;5145027;27;20118;-58
2022/12/22 05:22:33;;;;;;;25.00;5.88;;;;;;;;;;5146106;27;20039;-58
2022/12/22 05:25:00;;;;;;;34.13;10.15;;;;;;;;;;5148059;27;20086;-58
2022/12/22 05:27:26;;;;;;;16.48;4.63;;;;;;;;;;5148831;27;20046;-59
2022/12/22 05:29:52;;;;;;;23.08;6.82;;;;;;;;;;5147155;27;20035;-59
2022/12/22 05:32:18;;;;;;;25.58;7.97;;;;;;;;;;5146963;27;20070;-58
2022/12/22 05:34:44;;;;;;;31.90;7.25;;;;;;;;;;5148794;27;20038;-58
2022/12/22 05:37:10;;;;;;;29.95;9.85;;;;;;;;;;5143963;27;20042;-59
2022/12/22 05:39:36;;;;;;;30.25;9.60;;;;;;;;;;5145220;27;20090;-58
2022/12/22 05:42:02;;;;;;;33.90;8.82;;;;;;;;;;5148687;27;20039;-58
2022/12/22 05:44:28;;;;;;;25.60;7.90;;;;;;;;;;5147164;27;20087;-58
2022/12/22 05:46:55;;;;;;;31.60;7.05;;;;;;;;;;5147530;27;20127;-59
2022/12/22 05:49:21;;;;;;;34.03;7.85;;;;;;;;;;5147496;27;20126;-58
2022/12/22 05:51:47;;;;;;;33.67;7.65;;;;;;;;;;5148851;27;20897;-58
2022/12/22 05:54:13;;;;;;;36.70;7.75;;;;;;;;;;5147296;27;20675;-58
2022/12/22 05:56:39;;;;;;;28.23;8.63;;;;;;;;;;5148528;27;20049;-59
2022/12/22 05:59:05;;;;;;;25.10;5.63;;;;;;;;;;5147658;27;20199;-58
2022/12/22 06:01:32;;;;;;;26.10;7.20;;;;;;;;;;5147701;27;20204;-59
2022/12/22 06:03:58;;;;;;;38.03;8.23;;;;;;;;;;5147927;27;20463;-59
2022/12/22 06:06:24;;;;;;;37.65;10.15;;;;;;;;;;5147631;27;20141;-58
2022/12/22 06:08:50;;;;;;;29.00;6.72;;;;;;;;;;5145884;27;20644;-60
2022/12/22 06:11:18;;;;;;;41.08;10.18;;;;;;;;;;5148230;27;20545;-58
2022/12/22 06:13:44;;;;;;;28.17;6.22;;;;;;;;;;5148648;27;20133;-58
2022/12/22 06:16:10;;;;;;;31.50;8.88;;;;;;;;;;5144492;27;20070;-59
2022/12/22 06:18:37;;;;;;;35.00;8.27;;;;;;;;;;5147496;27;20089;-58
2022/12/22 06:21:03;;;;;;;25.05;5.35;;;;;;;;;;5147203;27;20039;-59
2022/12/22 06:23:29;;;;;;;46.00;11.05;;;;;;;;;;5147165;27;20591;-58
2022/12/22 06:26:00;;;;;;;27.00;8.57;;;;;;;;;;5147768;27;20538;-59
2022/12/22 06:28:26;;;;;;;35.58;10.05;;;;;;;;;;5147722;27;20047;-59
2022/12/22 06:30:53;;;;;;;32.60;9.32;;;;;;;;;;5146254;27;20035;-59
2022/12/22 06:33:19;;;;;;;43.35;9.73;;;;;;;;;;5146607;27;20035;-58
2022/12/22 06:35:45;;;;;;;32.30;8.52;;;;;;;;;;5147633;27;20877;-58
2022/12/22 06:38:11;;;;;;;27.77;7.80;;;;;;;;;;5147136;27;20118;-58
2022/12/22 06:40:37;;;;;;;39.53;9.45;;;;;;;;;;5145965;27;20460;-58
2022/12/22 06:43:07;;;;;;;35.50;7.70;;;;;;;;;;5146446;27;20112;-58
2022/12/22 06:45:33;;;;;;;28.20;7.80;;;;;;;;;;5146195;27;20130;-58
2022/12/22 06:47:59;;;;;;;36.45;9.45;;;;;;;;;;5146277;27;20315;-58
2022/12/22 06:50:25;;;;;;;43.05;10.02;;;;;;;;;;5147713;27;20123;-58
2022/12/22 06:52:52;;;;;;;26.85;10.25;;;;;;;;;;5147073;27;20045;-59
2022/12/22 06:55:18;;;;;;;36.70;8.05;;;;;;;;;;5146075;27;20491;-58
2022/12/22 06:57:44;;;;;;;42.22;12.20;;;;;;;;;;5145284;27;20069;-58
2022/12/22 07:00:10;;;;;;;41.58;10.10;;;;;;;;;;5141947;27;20116;-58
2022/12/22 07:02:36;;;;;;;42.25;11.65;;;;;;;;;;5143892;27;20050;-60
2022/12/22 07:05:02;;;;;;;47.28;12.10;;;;;;;;;;5139601;27;20043;-61
2022/12/22 07:07:28;;;;;;;38.88;9.82;;;;;;;;;;5142244;27;20059;-60
2022/12/22 07:09:55;;;;;;;40.40;7.80;;;;;;;;;;5142277;27;20040;-61
2022/12/22 07:12:22;;;;;;;26.60;7.38;;;;;;;;;;5141569;27;20094;-61
2022/12/22 07:14:48;;;;;;;43.50;10.43;;;;;;;;;;5143113;27;20099;-61
2022/12/22 07:17:14;;;;;;;51.22;8.55;;;;;;;;;;5143891;27;20683;-61
2022/12/22 07:19:40;;;;;;;41.40;11.18;;;;;;;;;;5144773;27;20043;-61
2022/12/22 07:22:06;;;;;;;35.55;10.10;;;;;;;;;;5144498;27;20046;-60
2022/12/22 07:24:32;;;;;;;36.92;7.22;;;;;;;;;;5147412;27;20059;-61
2022/12/22 07:26:58;;;;;;;29.27;8.90;;;;;;;;;;5144317;27;20050;-61
2022/12/22 07:29:24;;;;;;;57.65;14.07;;;;;;;;;;5146784;27;20043;-60
2022/12/22 07:31:51;;;;;;;40.15;9.00;;;;;;;;;;5146279;27;20035;-61
2022/12/22 07:34:17;;;;;;;46.65;10.43;;;;;;;;;;5145002;27;20043;-61
2022/12/22 07:36:43;;;;;;;42.33;9.07;;;;;;;;;;5147082;27;20046;-61
2022/12/22 07:39:09;;;;;;;37.92;10.82;;;;;;;;;;5145453;27;20477;-61
2022/12/22 07:44:20;;;;;;;37.97;8.27;;;;;;;;;;5146691;27;20090;-61
2022/12/22 07:46:46;;;;;;;24.38;7.63;;;;;;;;;;5143281;27;20077;-61
2022/12/22 07:51:58;;;;;;;40.42;11.13;;;;;;;;;;5144301;27;20097;-61
2022/12/22 07:54:25;;;;;;;36.65;9.07;;;;;;;;;;5145605;27;20074;-61
2022/12/22 07:56:51;;;;;;;27.48;7.32;;;;;;;;;;5142837;27;20103;-61
2022/12/22 07:59:17;;;;;;;44.42;9.88;;;;;;;;;;5144441;27;20043;-60
2022/12/22 08:01:44;;;;;;;42.72;9.07;;;;;;;;;;5147032;27;20043;-61
2022/12/22 08:04:10;;;;;;;37.90;9.25;;;;;;;;;;5145958;27;20043;-61
2022/12/22 08:06:37;;;;;;;33.80;8.27;;;;;;;;;;5145819;27;20053;-61
2022/12/22 08:09:04;;;;;;;38.88;11.15;;;;;;;;;;5144987;27;20035;-61
2022/12/22 08:11:30;;;;;;;35.88;6.93;;;;;;;;;;5145568;27;20039;-61
2022/12/22 08:13:56;;;;;;;34.60;8.43;;;;;;;;;;5145064;27;20077;-61
2022/12/22 08:16:22;;;;;;;39.55;10.10;;;;;;;;;;5143529;27;20043;-61
2022/12/22 08:18:49;;;;;;;33.75;7.57;;;;;;;;;;5142251;27;20043;-61
2022/12/22 08:21:15;;;;;;;36.63;8.43;;;;;;;;;;5144746;27;20050;-61
2022/12/22 08:23:42;;;;;;;34.65;8.88;;;;;;;;;;5161613;27;20047;-61
2022/12/22 08:26:13;;;;;;;46.38;11.35;;;;;;;;;;5145154;27;20038;-61
2022/12/22 08:28:46;;;;;;;40.85;10.00;;;;;;;;;;5145875;27;20481;-61
2022/12/22 08:31:12;;;;;;;25.92;9.02;;;;;;;;;;5145614;27;20168;-61
2022/12/22 08:33:38;;;;;;;42.08;10.45;;;;;;;;;;5147192;27;20050;-61
2022/12/22 08:36:05;;;;;;;38.10;9.98;;;;;;;;;;5147236;27;20112;-61
2022/12/22 08:38:31;;;;;;;29.65;8.90;;;;;;;;;;5146098;27;20083;-61
2022/12/22 08:40:57;;;;;;;45.38;11.05;;;;;;;;;;5145447;27;20039;-60
2022/12/22 08:43:24;;;;;;;41.10;8.40;;;;;;;;;;5144680;27;20056;-60
2022/12/22 08:45:50;;;;;;;32.42;12.85;;;;;;;;;;5146700;27;20051;-61
2022/12/22 08:48:16;;;;;;;37.15;8.95;;;;;;;;;;5144968;27;20031;-60
2022/12/22 08:50:42;;;;;;;41.70;9.32;;;;;;;;;;5146873;27;20049;-61
2022/12/22 08:53:08;;;;;;;39.50;10.25;;;;;;;;;;5161099;27;20127;-61
2022/12/22 08:55:34;;;;;;;36.88;9.60;;;;;;;;;;5146180;27;20676;-61
2022/12/22 08:58:01;;;;;;;23.80;5.55;;;;;;;;;;5145896;27;20510;-61
2022/12/22 09:00:27;;;;;;;43.60;11.40;;;;;;;;;;5162480;27;20269;-60
2022/12/22 09:02:53;;;;;;;37.50;9.18;;;;;;;;;;5145797;27;20071;-60
2022/12/22 09:05:19;;;;;;;43.42;9.13;;;;;;;;;;5146444;27;20150;-61
2022/12/22 09:07:46;;;;;;;38.22;10.27;;;;;;;;;;5144332;27;20047;-60
2022/12/22 09:10:12;;;;;;;35.83;9.60;;;;;;;;;;5145012;27;20097;-61
2022/12/22 09:12:38;;;;;;;30.98;8.73;;;;;;;;;;5145611;27;20047;-61
2022/12/22 09:15:07;;;;;;;50.15;10.88;;;;;;;;;;5145820;27;20054;-60
2022/12/22 09:17:34;;;;;;;35.95;9.18;;;;;;;;;;5140777;27;20034;-60
2022/12/22 09:20:01;;;;;;;40.25;9.65;;;;;;;;;;5144080;27;20532;-60
2022/12/22 09:22:27;;;;;;;37.05;10.60;;;;;;;;;;5143737;27;20050;-60
2022/12/22 09:24:53;;;;;;;33.38;8.68;;;;;;;;;;5143745;27;20050;-60
2022/12/22 09:27:19;;;;;;;46.72;10.68;;;;;;;;;;5144327;27;20397;-61
2022/12/22 09:29:45;;;;;;;39.63;7.75;;;;;;;;;;5144859;27;20043;-60
2022/12/22 09:32:11;;;;;;;28.63;7.30;;;;;;;;;;5143290;27;20066;-61
2022/12/22 09:34:38;;;;;;;32.72;8.88;;;;;;;;;;5144763;27;20076;-61
2022/12/22 09:37:05;;;;;;;21.38;6.55;;;;;;;;;;5144131;27;20544;-61
2022/12/22 09:39:31;;;;;;;34.65;6.57;;;;;;;;;;5144449;27;20521;-61
2022/12/22 09:41:58;;;;;;;27.85;6.95;;;;;;;;;;5144549;27;20078;-61
2022/12/22 09:44:26;;;;;;;33.17;7.80;;;;;;;;;;5145615;27;20507;-61
2022/12/22 09:46:52;;;;;;;43.35;7.95;;;;;;;;;;5144467;27;20083;-61
2022/12/22 09:49:19;;;;;;;38.35;8.30;;;;;;;;;;5144128;27;20448;-61
2022/12/22 09:52:02;;;;;;;47.25;10.73;;;;;;;;;;5144013;27;20431;-58
2022/12/22 09:54:29;;;;;;;29.42;10.77;;;;;;;;;;5145363;27;20039;-59
2022/12/22 09:56:55;;;;;;;36.88;8.07;;;;;;;;;;5144005;27;20599;-58
2022/12/22 09:59:22;;;;;;;35.33;8.35;;;;;;;;;;5143183;27;20134;-58
2022/12/22 10:01:56;;;;;;;31.13;8.18;;;;;;;;;;5143527;27;20035;-59
2022/12/22 10:04:28;;;;;;;32.78;8.57;;;;;;;;;;5144205;27;20042;-58
2022/12/22 10:06:54;;;;;;;30.95;7.80;;;;;;;;;;5144138;27;21254;-58
2022/12/22 10:09:29;;;;;;;37.70;8.82;;;;;;;;;;5144317;27;20513;-60
2022/12/22 10:11:56;;;;;;;33.05;13.32;;;;;;;;;;5148061;27;20887;-58
2022/12/22 10:14:26;;;;;;;38.78;10.15;;;;;;;;;;5142851;27;20044;-59
2022/12/22 10:17:12;;;;;;;31.13;8.35;;;;;;;;;;5145736;27;20035;-59
2022/12/22 10:19:38;;;;;;;37.65;10.23;;;;;;;;;;5145997;27;20039;-59
2022/12/22 10:22:17;;;;;;;40.88;8.10;;;;;;;;;;5144289;27;20046;-58
2022/12/22 10:24:43;;;;;;;31.58;8.15;;;;;;;;;;5135162;27;20046;-58
2022/12/22 10:27:10;;;;;;;37.45;9.90;;;;;;;;;;5144659;27;20039;-59
2022/12/22 10:29:36;;;;;;;34.63;10.18;;;;;;;;;;5128987;27;20632;-58
2022/12/22 10:32:04;;;;;;;29.08;8.23;;;;;;;;;;5161215;27;20057;-58
2022/12/22 10:34:30;;;;;;;45.78;11.27;;;;;;;;;;5145777;27;20076;-58
2022/12/22 10:36:58;;;;;;;40.28;9.10;;;;;;;;;;5146641;27;21293;-58
2022/12/22 10:39:26;;;;;;;43.35;11.02;;;;;;;;;;5144972;27;20130;-58
2022/12/22 10:41:55;;;;;;;29.17;9.15;;;;;;;;;;5145018;27;20035;-58
2022/12/22 10:44:23;;;;;;;33.38;9.88;;;;;;;;;;5143556;27;20914;-59
2022/12/22 10:46:50;;;;;;;31.95;8.82;;;;;;;;;;5144254;27;20517;-58
2022/12/22 10:49:19;;;;;;;30.50;8.20;;;;;;;;;;5145262;27;20099;-59
2022/12/22 10:51:47;;;;;;;30.55;8.77;;;;;;;;;;5145238;27;20066;-59
2022/12/22 10:54:35;;;;;;;35.70;8.10;;;;;;;;;;5144390;27;20043;-58
2022/12/22 10:57:27;;;;;;;24.00;9.68;;;;;;;;;;5140662;27;20043;-59
2022/12/22 10:59:53;;;;;;;;;;;;;;;;;;5142129;27;20043;-59
2022/12/22 11:02:31;;;;;;;28.45;8.80;;;;;;;;;;5144110;27;19923;-59
2022/12/22 11:05:02;;;;;;;27.45;8.50;;;;;;;;;;5145168;27;20386;-59
2022/12/22 11:07:30;;;;;;;29.48;9.35;;;;;;;;;;5139510;27;20572;-58
2022/12/22 11:09:56;;;;;;;29.20;7.35;;;;;;;;;;5143517;27;20043;-59
2022/12/22 11:12:28;;;;;;;27.80;7.88;;;;;;;;;;5144253;27;20043;-59
2022/12/22 11:14:58;;;;;;;24.60;6.63;;;;;;;;;;5144068;27;20043;-61
2022/12/22 11:17:42;;;;;;;22.95;7.35;;;;;;;;;;5144635;27;20042;-61
2022/12/22 11:20:27;;;;;;;28.58;8.65;;;;;;;;;;5143397;27;20539;-61
2022/12/22 11:22:56;;;;;;;30.92;7.90;;;;;;;;;;5144324;27;20047;-60
2022/12/22 11:25:32;;;;;;;29.80;9.85;;;;;;;;;;5139951;27;20439;-61
2022/12/22 11:28:10;;;;;;;29.10;7.45;;;;;;;;;;5144821;27;20552;-61
2022/12/22 11:30:44;;;;;;;36.28;11.35;;;;;;;;;;5144567;27;20074;-59
2022/12/22 11:33:10;;;;;;;41.28;7.95;;;;;;;;;;5143041;27;20122;-59
2022/12/22 11:35:39;;;;;;;29.25;9.43;;;;;;;;;;5144463;27;20130;-59
2022/12/22 11:38:21;;;;;;;37.63;8.82;;;;;;;;;;5143982;27;20043;-60
2022/12/22 11:40:50;;;;;;;32.67;9.23;;;;;;;;;;5141377;27;20585;-59
2022/12/22 11:43:22;;;;;;;29.92;7.40;;;;;;;;;;5143775;27;20043;-59
2022/12/22 11:45:48;;;;;;;;;;;;;;;;;;5142986;27;20035;-58
2022/12/22 11:48:33;;;;;;;39.97;10.15;;;;;;;;;;5144947;27;19926;-59
2022/12/22 11:51:13;;;;;;;32.55;8.52;;;;;;;;;;5146225;27;20150;-59
2022/12/22 11:53:48;;;;;;;34.33;8.38;;;;;;;;;;5143569;27;20039;-59
2022/12/22 11:56:35;;;;;;;31.10;7.20;;;;;;;;;;5142555;27;20049;-59
2022/12/22 11:59:07;;;;;;;29.33;6.85;;;;;;;;;;5145801;27;20111;-58
2022/12/22 12:01:33;;;;;;;26.42;7.47;;;;;;;;;;5144050;27;20154;-59
2022/12/22 12:03:59;;;;;;;34.28;10.65;;;;;;;;;;5143995;27;20521;-59
2022/12/22 12:06:44;;;;;;;31.20;8.13;;;;;;;;;;5143879;27;20052;-59
2022/12/22 12:09:29;;;;;;;36.35;8.52;;;;;;;;;;5143183;27;20100;-59
2022/12/22 12:11:58;;;;;;;29.70;7.95;;;;;;;;;;5142575;27;20144;-59
2022/12/22 12:14:34;;;;;;;39.38;8.45;;;;;;;;;;5139654;27;20042;-59
2022/12/22 12:17:06;;;;;;;42.05;10.30;;;;;;;;;;5139650;27;20155;-59
2022/12/22 12:19:42;;;;;;;24.52;6.90;;;;;;;;;;5145333;27;20039;-59
2022/12/22 12:22:13;;;;;;;32.55;7.25;;;;;;;;;;5145324;27;20095;-59
2022/12/22 12:24:47;;;;;;;29.60;9.23;;;;;;;;;;5143933;27;20039;-59
2022/12/22 12:27:32;;;;;;;24.00;6.13;;;;;;;;;;5142264;27;20074;-59
2022/12/22 12:30:13;;;;;;;30.92;9.07;;;;;;;;;;5141368;27;20092;-59
2022/12/22 12:32:42;;;;;;;28.42;9.60;;;;;;;;;;5143336;27;20041;-58
2022/12/22 12:35:31;;;;;;;31.65;8.15;;;;;;;;;;5143254;27;20050;-59
2022/12/22 12:38:01;;;;;;;26.15;5.63;;;;;;;;;;5142444;27;20415;-59
2022/12/22 12:40:27;;;;;;;32.60;6.95;;;;;;;;;;5139315;27;20202;-58
2022/12/22 12:42:53;;;;;;;32.42;9.25;;;;;;;;;;5143598;27;20043;-58
2022/12/22 12:45:37;;;;;;;27.08;7.90;;;;;;;;;;5140169;27;20042;-58
2022/12/22 12:48:22;;;;;;;30.85;7.18;;;;;;;;;;5140664;27;20054;-59
2022/12/22 12:50:49;;;;;;;22.98;7.63;;;;;;;;;;5141892;27;20053;-58
2022/12/22 12:53:16;;;;;;;22.50;5.30;;;;;;;;;;5142549;27;20039;-59
2022/12/22 12:55:51;;;;;;;35.97;6.53;;;;;;;;;;5144921;27;20148;-59
2022/12/22 12:58:36;;;;;;;34.13;8.10;;;;;;;;;;5142504;27;20126;-59
2022/12/22 13:01:03;;;;;;;29.52;7.72;;;;;;;;;;5146162;27;20127;-59
2022/12/22 13:03:29;;;;;;;29.38;8.85;;;;;;;;;;5144521;27;20448;-59
2022/12/22 13:05:59;;;;;;;35.75;8.43;;;;;;;;;;5144201;27;20139;-59
2022/12/22 13:08:26;;;;;;;32.10;10.40;;;;;;;;;;5144031;27;20042;-59
2022/12/22 13:10:55;;;;;;;30.63;7.63;;;;;;;;;;5145002;27;20046;-59
2022/12/22 13:13:21;;;;;;;36.78;9.15;;;;;;;;;;5143875;27;20039;-59
2022/12/22 13:15:48;;;;;;;40.80;9.57;;;;;;;;;;5158043;27;20039;-59
2022/12/22 13:18:18;;;;;;;30.83;7.53;;;;;;;;;;5143256;27;20644;-59
2022/12/22 13:20:44;;;;;;;29.50;8.05;;;;;;;;;;5142767;27;20138;-59
2022/12/22 13:23:12;;;;;;;27.13;8.23;;;;;;;;;;5134491;27;20031;-59
2022/12/22 13:25:49;;;;;;;34.83;7.70;;;;;;;;;;5139685;27;20195;-59
2022/12/22 13:28:16;;;;;;;25.73;8.70;;;;;;;;;;5141634;27;20048;-59
2022/12/22 13:30:49;;;;;;;21.98;7.72;;;;;;;;;;5145284;27;20123;-59
2022/12/22 13:33:18;;;;;;;25.42;6.55;;;;;;;;;;5145823;27;20046;-59
2022/12/22 13:35:45;;;;;;;37.63;10.15;;;;;;;;;;5145226;27;20428;-59
2022/12/22 13:38:29;;;;;;;32.85;8.30;;;;;;;;;;5147115;27;20047;-59
2022/12/22 13:40:55;;;;;;;27.80;5.70;;;;;;;;;;5143933;27;20039;-59
2022/12/22 13:43:21;;;;;;;31.30;9.95;;;;;;;;;;5144071;27;20532;-59
2022/12/22 13:45:49;;;;;;;27.27;7.70;;;;;;;;;;5149805;27;20031;-59
2022/12/22 13:48:24;;;;;;;26.95;7.78;;;;;;;;;;5148474;27;20038;-60
2022/12/22 13:50:52;;;;;;;28.58;9.15;;;;;;;;;;5146938;27;20051;-59
2022/12/22 13:53:28;;;;;;;32.90;8.68;;;;;;;;;;5148960;27;20049;-59
2022/12/22 13:55:54;;;;;;;19.63;6.07;;;;;;;;;;5149478;27;20039;-59
2022/12/22 13:58:30;;;;;;;24.45;6.95;;;;;;;;;;5148038;27;20043;-59
2022/12/22 14:01:09;;;;;;;27.75;9.43;;;;;;;;;;5148753;27;20067;-59
2022/12/22 14:03:38;;;;;;;34.95;7.30;;;;;;;;;;5148529;27;20110;-59
2022/12/22 14:06:20;;;;;;;28.20;9.43;;;;;;;;;;5147899;27;20067;-59
2022/12/22 14:08:46;;;;;;;25.63;7.85;;;;;;;;;;5148933;27;20145;-59
2022/12/22 14:11:12;;;;;;;27.65;7.88;;;;;;;;;;5146729;27;20597;-59
2022/12/22 14:13:38;;;;;;;24.60;6.47;;;;;;;;;;5149391;27;20073;-59
2022/12/22 14:16:05;;;;;;;24.83;6.63;;;;;;;;;;5149795;27;20078;-60
2022/12/22 14:18:32;;;;;;;19.95;8.00;;;;;;;;;;5148415;27;20031;-59
2022/12/22 14:20:59;;;;;;;19.45;6.40;;;;;;;;;;5147422;27;20605;-59
2022/12/22 14:23:25;;;;;;;24.65;6.20;;;;;;;;;;5149629;27;20115;-59
2022/12/22 14:25:52;;;;;;;23.60;5.88;;;;;;;;;;5148653;27;21549;-60
2022/12/22 14:28:18;;;;;;;21.60;5.07;;;;;;;;;;5131392;27;20055;-60
2022/12/22 14:30:46;;;;;;;19.20;5.13;;;;;;;;;;5165169;27;20041;-60
2022/12/22 14:33:18;;;;;;;24.88;6.78;;;;;;;;;;5148432;27;20038;-60
2022/12/22 14:35:44;;;;;;;26.35;7.18;;;;;;;;;;5149473;27;20558;-59
2022/12/22 14:38:24;;;;;;;17.55;6.35;;;;;;;;;;5149024;27;20534;-59
2022/12/22 14:40:51;;;;;;;18.63;5.43;;;;;;;;;;5147503;27;20039;-60
2022/12/22 14:43:17;;;;;;;15.10;4.97;;;;;;;;;;5148079;27;20054;-60
2022/12/22 14:45:44;;;;;;;21.05;6.35;;;;;;;;;;5146697;27;20063;-60
2022/12/22 14:48:16;;;;;;;26.40;9.07;;;;;;;;;;5145683;27;21209;-60
2022/12/22 14:50:48;;;;;;;13.75;4.10;;;;;;;;;;5148156;27;20054;-60
2022/12/22 14:53:15;;;;;;;13.60;4.82;;;;;;;;;;5148689;27;20046;-60
2022/12/22 14:55:48;;;;;;;15.60;5.53;;;;;;;;;;5146509;27;20054;-59
2022/12/22 14:58:22;;;;;;;23.38;5.80;;;;;;;;;;5146884;27;20035;-60
2022/12/22 15:01:08;;;;;;;17.30;6.15;;;;;;;;;;5147366;27;20111;-60
2022/12/22 15:03:36;;;;;;;21.23;5.00;;;;;;;;;;5149368;27;20031;-60
2022/12/22 15:06:21;;;;;;;14.32;3.28;;;;;;;;;;5146837;27;20096;-59
2022/12/22 15:08:47;;;;;;;17.67;6.32;;;;;;;;;;5147184;27;20114;-60
2022/12/22 15:11:15;;;;;;;14.13;3.85;;;;;;;;;;5148394;27;20479;-60
2022/12/22 15:13:42;;;;;;;12.18;4.22;;;;;;;;;;5145995;27;20039;-60
2022/12/22 15:16:15;;;;;;;10.70;4.25;;;;;;;;;;5147446;27;20042;-60
2022/12/22 15:18:41;;;;;;;15.88;4.43;;;;;;;;;;5146479;27;21150;-60
2022/12/22 15:21:09;;;;;;;11.30;4.05;;;;;;;;;;5148601;27;20508;-59
2022/12/22 15:23:35;;;;;;;9.95;3.42;;;;;;;;;;5145239;27;20508;-60
2022/12/22 15:26:01;;;;;;;11.23;3.90;;;;;;;;;;5148508;27;20117;-60
2022/12/22 15:28:27;;;;;;;11.25;4.18;;;;;;;;;;5146690;27;20058;-60
2022/12/22 15:30:53;;;;;;;10.00;3.53;;;;;;;;;;5147899;27;20041;-60
2022/12/22 15:33:19;;;;;;;15.25;4.95;;;;;;;;;;5146900;27;20045;-60
2022/12/22 15:35:46;;;;;;;13.13;3.25;;;;;;;;;;5146960;27;20567;-60
2022/12/22 15:38:16;;;;;;;13.30;5.00;;;;;;;;;;5148464;27;20563;-59
2022/12/22 15:40:42;;;;;;;9.35;3.72;;;;;;;;;;5146399;27;20066;-59
2022/12/22 15:43:09;;;;;;;17.70;3.47;;;;;;;;;;5146948;27;20517;-59
2022/12/22 15:45:36;;;;;;;9.05;4.13;;;;;;;;;;5146734;27;20118;-59
2022/12/22 15:48:03;;;;;;;6.97;2.78;;;;;;;;;;5147541;27;20035;-60
2022/12/22 15:50:32;;;;;;;10.20;4.05;;;;;;;;;;5146446;27;20043;-59
2022/12/22 15:52:59;;;;;;;13.70;3.92;;;;;;;;;;5147582;27;20088;-60
2022/12/22 15:55:25;;;;;;;8.50;3.70;;;;;;;;;;5148002;27;20085;-59
2022/12/22 15:57:53;;;;;;;10.55;2.60;;;;;;;;;;5145539;27;20444;-59
2022/12/22 16:00:20;;;;;;;6.40;2.78;;;;;;;;;;5146144;27;20046;-60
2022/12/22 16:02:46;;;;;;;5.45;3.08;;;;;;;;;;5146922;27;20141;-60
2022/12/22 16:05:13;;;;;;;10.43;3.25;;;;;;;;;;5146975;27;20191;-59
2022/12/22 16:07:40;;;;;;;5.82;1.70;;;;;;;;;;5140157;27;20211;-60
2022/12/22 16:10:28;;;;;;;4.28;1.50;;;;;;;;;;5140537;27;20046;-59
2022/12/22 16:12:59;;;;;;;6.55;1.50;;;;;;;;;;5140134;27;20054;-59
2022/12/22 16:15:29;;;;;;;4.60;1.63;;;;;;;;;;5139226;27;20054;-59
2022/12/22 16:17:56;;;;;;;8.25;2.10;;;;;;;;;;5143351;27;20632;-59
2022/12/22 16:20:22;;;;;;;2.67;1.23;;;;;;;;;;5143108;27;20078;-59
2022/12/22 16:22:50;;;;;;;4.32;1.75;;;;;;;;;;5140833;27;20819;-59
2022/12/22 16:25:18;;;;;;;4.07;1.63;;;;;;;;;;5142550;27;20039;-60
2022/12/22 16:27:46;;;;;;;4.63;1.60;;;;;;;;;;5145036;27;20053;-59
2022/12/22 16:30:18;;;;;;;5.22;1.15;;;;;;;;;;5146700;27;20113;-60
2022/12/22 16:32:44;;;;;;;2.20;1.20;;;;;;;;;;5142815;27;20540;-59
2022/12/22 16:35:11;;;;;;;4.32;1.58;;;;;;;;;;5145085;27;20062;-59
2022/12/22 16:37:37;;;;;;;3.28;1.13;;;;;;;;;;5144706;27;20921;-59
2022/12/22 16:40:05;;;;;;;4.25;1.02;;;;;;;;;;5145023;27;20045;-59
2022/12/22 16:42:31;;;;;;;2.53;1.00;;;;;;;;;;5145055;27;20058;-59
2022/12/22 16:44:57;;;;;;;3.22;1.13;;;;;;;;;;5145695;27;20096;-59
2022/12/22 16:47:27;;;;;;;3.10;1.50;;;;;;;;;;5145469;27;20129;-59
2022/12/22 16:49:54;;;;;;;1.00;0.85;;;;;;;;;;5144899;27;20049;-60
2022/12/22 16:52:40;;;;;;;1.55;0.98;;;;;;;;;;5146229;27;20169;-59
2022/12/22 16:55:15;;;;;;;3.65;1.10;;;;;;;;;;5143817;27;20727;-60
2022/12/22 16:57:42;;;;;;;4.55;1.90;;;;;;;;;;5140940;27;20034;-59
2022/12/22 17:00:09;;;;;;;5.07;1.20;;;;;;;;;;5144702;27;20528;-59
2022/12/22 17:02:36;;;;;;;3.03;1.23;;;;;;;;;;5144422;27;20049;-60
2022/12/22 17:05:02;;;;;;;2.53;1.25;;;;;;;;;;5146615;27;20079;-59
2022/12/22 17:07:31;;;;;;;1.52;0.88;;;;;;;;;;5142802;27;20052;-59
2022/12/22 17:10:00;;;;;;;4.57;1.20;;;;;;;;;;5142635;27;20066;-60
2022/12/22 17:12:28;;;;;;;1.58;0.90;;;;;;;;;;5159812;27;20656;-60
2022/12/22 17:14:54;;;;;;;1.58;0.75;;;;;;;;;;5143005;27;20104;-59
2022/12/22 17:17:22;;;;;;;2.30;0.85;;;;;;;;;;5143852;27;20118;-59
2022/12/22 17:19:48;;;;;;;1.58;1.13;;;;;;;;;;5146323;27;20978;-59
2022/12/22 17:22:20;;;;;;;7.75;1.98;;;;;;;;;;5144333;27;20054;-59
2022/12/22 17:24:46;;;;;;;2.05;1.00;;;;;;;;;;5147424;27;20566;-59
2022/12/22 17:27:14;;;;;;;2.55;1.63;;;;;;;;;;5144810;27;20114;-59
2022/12/22 17:29:40;;;;;;;2.10;1.00;;;;;;;;;;5147925;27;20043;-59
2022/12/22 17:32:10;;;;;;;0.90;0.52;;;;;;;;;;5144671;27;20556;-59
2022/12/22 17:34:36;;;;;;;1.63;1.00;;;;;;;;;;5145589;27;20114;-61
2022/12/22 17:37:02;;;;;;;2.15;0.80;;;;;;;;;;5146070;27;20035;-59
2022/12/22 17:39:29;;;;;;;1.88;1.20;;;;;;;;;;5143919;27;20519;-59
2022/12/22 17:41:55;;;;;;;1.63;1.15;;;;;;;;;;5144685;27;20111;-60
2022/12/22 17:44:22;;;;;;;5.47;3.47;;;;;;;;;;5144479;27;20087;-60
2022/12/22 17:46:48;;;;;;;3.80;2.75;;;;;;;;;;5143083;27;21230;-59
2022/12/22 17:49:18;;;;;;;2.80;1.42;;;;;;;;;;5143070;27;20042;-59
2022/12/22 17:51:44;;;;;;;1.17;0.95;;;;;;;;;;5141633;27;20038;-59
2022/12/22 17:54:21;;;;;;;2.40;1.35;;;;;;;;;;5142629;27;21795;-59
2022/12/22 17:56:48;;;;;;;2.33;1.48;;;;;;;;;;5141016;27;20158;-59
2022/12/22 17:59:14;;;;;;;3.05;1.00;;;;;;;;;;5142987;27;20477;-59
2022/12/22 18:01:40;;;;;;;1.30;0.77;;;;;;;;;;5142396;27;20516;-61
2022/12/22 18:04:08;;;;;;;2.95;1.00;;;;;;;;;;5142791;27;20031;-60
2022/12/22 18:06:37;;;;;;;2.10;0.90;;;;;;;;;;5142739;27;20247;-60
2022/12/22 18:09:03;;;;;;;2.92;1.10;;;;;;;;;;5143709;27;20043;-60
2022/12/22 18:11:30;;;;;;;1.50;0.95;;;;;;;;;;5143389;27;20263;-60
2022/12/22 18:13:57;;;;;;;1.83;1.20;;;;;;;;;;5142079;27;20038;-60
2022/12/22 18:16:24;;;;;;;1.42;0.90;;;;;;;;;;5143945;27;20051;-60
2022/12/22 18:18:50;;;;;;;2.45;1.45;;;;;;;;;;5142847;27;20038;-60